createdAt,value
2022-09-15T00:01:00.946Z,94046.59
2022-09-15T00:03:28.969Z,94051.13
2022-09-15T00:05:56.232Z,94052.72
2022-09-15T00:08:24.348Z,94054.72
2022-09-15T00:10:54.255Z,94045.25
2022-09-15T00:13:22.116Z,94037.69
2022-09-15T00:15:48.773Z,94044.28
2022-09-15T00:18:15.985Z,94036.72
2022-09-15T00:20:45.557Z,94037.81
2022-09-15T00:23:14.228Z,94037.81
2022-09-15T00:25:45.757Z,94040.03
2022-09-15T00:28:13.513Z,94032.53
2022-09-15T00:30:42.155Z,94038.41
2022-09-15T00:33:08.957Z,94026.31
2022-09-15T00:35:39.525Z,94021.28
2022-09-15T00:38:09.130Z,94015.03
2022-09-15T00:40:43.870Z,94014.09
2022-09-15T00:43:12.071Z,94007.50
2022-09-15T00:45:39.061Z,94014.75
2022-09-15T00:48:08.170Z,94008.31
2022-09-15T00:50:36.066Z,94011.41
2022-09-15T00:53:05.898Z,94001.53
2022-09-15T00:55:37.469Z,94015.34
2022-09-15T00:58:06.858Z,94007.09
2022-09-15T01:00:34.465Z,94003.00
2022-09-15T01:03:02.145Z,94000.78
2022-09-15T01:05:33.001Z,94007.25
2022-09-15T01:08:03.125Z,94011.03
2022-09-15T01:10:35.775Z,94007.56
2022-09-15T01:13:05.521Z,94015.47
2022-09-15T01:15:40.006Z,94006.41
2022-09-15T01:18:15.513Z,94010.72
2022-09-15T01:21:02.585Z,94006.34
2022-09-15T01:24:00.301Z,94001.44
2022-09-15T01:27:00.319Z,94014.19
2022-09-15T01:29:55.462Z,94009.94
2022-09-15T01:32:47.800Z,94008.50
2022-09-15T01:35:27.667Z,94008.16
2022-09-15T01:37:58.883Z,94009.09
2022-09-15T01:40:32.288Z,94007.31
2022-09-15T01:43:01.429Z,94004.31
2022-09-15T01:45:32.837Z,94006.03
2022-09-15T01:48:03.704Z,94014.03
2022-09-15T01:50:34.226Z,94006.91
2022-09-15T01:53:04.177Z,94012.25
2022-09-15T01:55:37.995Z,94013.22
2022-09-15T01:58:05.142Z,94012.56
2022-09-15T02:00:36.993Z,94010.44
2022-09-15T02:03:11.778Z,94008.56
2022-09-15T02:05:42.175Z,94008.56
2022-09-15T02:08:25.103Z,94010.56
2022-09-15T02:11:01.930Z,94012.00
2022-09-15T02:13:38.105Z,94012.00
2022-09-15T02:16:15.898Z,94003.19
2022-09-15T02:18:48.659Z,93998.50
2022-09-15T02:21:22.594Z,93992.69
2022-09-15T02:23:54.922Z,93985.78
2022-09-15T02:26:24.784Z,93984.19
2022-09-15T02:28:54.239Z,93989.25
2022-09-15T02:31:25.433Z,93978.66
2022-09-15T02:33:57.975Z,93981.78
2022-09-15T02:36:28.921Z,93975.31
2022-09-15T02:39:02.212Z,93973.44
2022-09-15T02:41:28.997Z,93981.78
2022-09-15T02:43:55.754Z,93984.13
2022-09-15T02:46:24.527Z,93979.25
2022-09-15T02:48:51.175Z,93978.00
2022-09-15T02:51:18.503Z,93983.69
2022-09-15T02:53:46.355Z,93987.91
2022-09-15T02:56:13.692Z,93981.47
2022-09-15T02:58:40.657Z,93981.47
2022-09-15T03:01:08.658Z,93988.72
2022-09-15T03:03:39.920Z,93983.47
2022-09-15T03:06:19.798Z,93993.53
2022-09-15T03:08:48.861Z,93991.63
2022-09-15T03:11:16.106Z,93991.63
2022-09-15T03:13:43.061Z,93988.50
2022-09-15T03:16:11.899Z,93990.72
2022-09-15T03:18:40.217Z,93988.25
2022-09-15T03:21:08.062Z,93982.31
2022-09-15T03:23:36.013Z,93985.44
2022-09-15T03:26:03.474Z,93978.66
2022-09-15T03:28:30.231Z,93982.13
2022-09-15T03:30:57.010Z,93971.84
2022-09-15T03:33:24.411Z,93972.97
2022-09-15T03:35:52.857Z,93964.94
2022-09-15T03:38:19.940Z,93962.25
2022-09-15T03:40:57.582Z,93960.50
2022-09-15T03:43:24.725Z,93960.50
2022-09-15T03:45:51.398Z,93951.03
2022-09-15T03:48:18.130Z,93959.84
2022-09-15T03:50:44.745Z,93968.97
2022-09-15T03:53:12.885Z,93973.22
2022-09-15T03:55:39.551Z,93977.00
2022-09-15T03:58:06.318Z,93982.34
2022-09-15T04:00:32.951Z,93983.47
2022-09-15T04:02:59.947Z,93978.13
2022-09-15T04:05:26.535Z,93977.66
2022-09-15T04:07:53.081Z,93976.09
2022-09-15T04:10:24.338Z,93979.88
2022-09-15T04:12:51.430Z,93975.84
2022-09-15T04:15:18.943Z,93982.81
2022-09-15T04:17:45.698Z,93980.81
2022-09-15T04:20:12.871Z,93989.50
2022-09-15T04:22:39.461Z,93986.81
2022-09-15T04:25:07.214Z,93990.28
2022-09-15T04:27:36.314Z,93991.72
2022-09-15T04:30:03.623Z,93992.38
2022-09-15T04:32:30.251Z,93993.94
2022-09-15T04:34:56.961Z,94003.59
2022-09-15T04:37:23.577Z,94001.56
2022-09-15T04:39:50.792Z,94003.34
2022-09-15T04:42:17.495Z,94003.19
2022-09-15T04:44:45.504Z,94002.31
2022-09-15T04:47:12.179Z,93992.88
2022-09-15T04:49:39.125Z,93990.41
2022-09-15T04:52:09.594Z,93982.25
2022-09-15T04:54:36.806Z,93982.13
2022-09-15T04:57:03.796Z,93979.13
2022-09-15T04:59:30.411Z,93978.81
2022-09-15T05:01:58.739Z,93973.47
2022-09-15T05:04:25.713Z,93974.22
2022-09-15T05:06:52.682Z,93971.69
2022-09-15T05:09:19.292Z,93977.84
2022-09-15T05:11:45.947Z,93978.28
2022-09-15T05:14:12.755Z,93981.41
2022-09-15T05:16:40.214Z,93984.84
2022-09-15T05:19:10.316Z,93982.53
2022-09-15T05:21:37.057Z,93988.34
2022-09-15T05:24:03.807Z,93990.00
2022-09-15T05:26:30.713Z,93981.38
2022-09-15T05:28:57.851Z,93991.25
2022-09-15T05:31:27.248Z,93993.81
2022-09-15T05:33:54.319Z,93995.25
2022-09-15T05:36:25.031Z,93999.47
2022-09-15T05:38:52.336Z,93998.38
2022-09-15T05:41:19.684Z,94002.63
2022-09-15T05:43:47.909Z,94007.66
2022-09-15T05:46:16.031Z,94015.34
2022-09-15T05:48:42.795Z,94007.31
2022-09-15T05:51:09.784Z,94021.16
2022-09-15T05:53:38.352Z,94011.38
2022-09-15T05:56:07.186Z,94016.38
2022-09-15T05:58:34.020Z,94022.41
2022-09-15T06:01:05.532Z,94017.34
2022-09-15T06:03:32.497Z,94018.34
2022-09-15T06:06:00.057Z,94022.00
2022-09-15T06:08:31.070Z,94023.31
2022-09-15T06:11:03.468Z,94021.25
2022-09-15T06:13:30.269Z,94022.06
2022-09-15T06:16:01.199Z,94022.97
2022-09-15T06:18:27.836Z,94023.91
2022-09-15T06:20:54.389Z,94014.75
2022-09-15T06:23:21.013Z,94013.66
2022-09-15T06:25:47.627Z,94014.09
2022-09-15T06:28:15.716Z,94025.38
2022-09-15T06:30:42.928Z,94030.53
2022-09-15T06:33:09.708Z,94027.25
2022-09-15T06:35:36.321Z,94022.47
2022-09-15T06:38:03.108Z,94026.19
2022-09-15T06:40:30.573Z,94018.94
2022-09-15T06:42:57.263Z,94023.63
2022-09-15T06:45:25.205Z,94026.00
2022-09-15T06:48:13.378Z,94016.53
2022-09-15T06:50:38.550Z,94016.13
2022-09-15T06:53:05.192Z,94012.63
2022-09-15T06:55:31.902Z,94022.00
2022-09-15T06:57:59.052Z,94018.75
2022-09-15T07:00:28.633Z,94018.69
2022-09-15T07:02:55.482Z,94015.47
2022-09-15T07:05:22.283Z,94014.94
2022-09-15T07:07:48.926Z,94028.25
2022-09-15T07:10:15.838Z,94022.91
2022-09-15T07:12:42.600Z,94014.75
2022-09-15T07:15:10.711Z,94009.66
2022-09-15T07:17:39.728Z,94001.50
2022-09-15T07:20:06.840Z,94002.84
2022-09-15T07:22:33.658Z,94014.25
2022-09-15T07:25:00.282Z,94017.28
2022-09-15T07:27:31.632Z,94014.63
2022-09-15T07:29:58.981Z,94006.56
2022-09-15T07:32:25.820Z,94012.41
2022-09-15T07:34:58.364Z,94010.72
2022-09-15T07:37:25.334Z,94016.50
2022-09-15T07:39:52.113Z,94007.69
2022-09-15T07:42:18.796Z,94006.94
2022-09-15T07:44:45.649Z,94011.72
2022-09-15T07:47:12.253Z,94011.22
2022-09-15T07:49:39.045Z,94016.09
2022-09-15T07:52:07.027Z,94013.66
2022-09-15T07:54:33.739Z,94005.31
2022-09-15T07:57:00.321Z,94022.25
2022-09-15T07:59:26.994Z,94020.31
2022-09-15T08:01:54.241Z,94026.31
2022-09-15T08:04:20.998Z,94016.59
2022-09-15T08:06:47.699Z,94015.38
2022-09-15T08:09:17.647Z,94019.38
2022-09-15T08:11:44.341Z,94026.38
2022-09-15T08:14:10.986Z,94028.34
2022-09-15T08:16:38.593Z,94034.31
2022-09-15T08:19:05.386Z,94045.97
2022-09-15T08:21:32.072Z,94045.88
2022-09-15T08:23:59.723Z,94036.06
2022-09-15T08:26:29.330Z,94038.66
2022-09-15T08:28:56.150Z,94049.75
2022-09-15T08:31:24.490Z,94043.16
2022-09-15T08:33:54.333Z,94040.38
2022-09-15T08:36:22.366Z,94040.25
2022-09-15T08:38:51.685Z,94039.84
2022-09-15T08:41:24.707Z,94044.41
2022-09-15T08:43:58.197Z,94042.06
2022-09-15T08:46:34.383Z,94037.81
2022-09-15T08:49:07.933Z,94039.41
2022-09-15T08:51:42.591Z,94031.78
2022-09-15T08:54:16.657Z,94033.41
2022-09-15T08:56:43.875Z,94025.47
2022-09-15T08:59:15.158Z,94028.78
2022-09-15T09:01:53.106Z,94030.66
2022-09-15T09:04:41.517Z,94022.53
2022-09-15T09:07:21.710Z,94033.16
2022-09-15T09:09:56.418Z,94030.28
2022-09-15T09:12:51.958Z,94026.91
2022-09-15T09:15:32.775Z,94023.97
2022-09-15T09:18:17.863Z,94022.47
2022-09-15T09:20:55.230Z,94027.88
2022-09-15T09:23:26.879Z,94015.75
2022-09-15T09:25:56.236Z,93998.59
2022-09-15T09:28:31.984Z,94006.78
2022-09-15T09:31:07.259Z,94007.56
2022-09-15T09:33:46.794Z,94026.56
2022-09-15T09:36:14.983Z,94022.38
2022-09-15T09:38:45.246Z,94017.72
2022-09-15T09:41:15.267Z,94028.19
2022-09-15T09:43:43.132Z,94027.97
2022-09-15T09:46:16.152Z,94024.00
2022-09-15T09:48:48.622Z,94030.00
2022-09-15T09:51:31.255Z,94029.28
2022-09-15T09:54:04.317Z,94039.31
2022-09-15T09:56:31.033Z,94038.13
2022-09-15T09:58:57.763Z,94042.78
2022-09-15T10:01:27.213Z,94047.84
2022-09-15T10:04:12.631Z,94062.59
2022-09-15T10:06:40.445Z,94057.63
2022-09-15T10:09:14.667Z,94038.88
2022-09-15T10:11:44.086Z,94052.50
2022-09-15T10:14:20.550Z,94048.84
2022-09-15T10:17:02.761Z,94043.25
2022-09-15T10:19:32.688Z,94049.63
2022-09-15T10:22:00.944Z,94049.47
2022-09-15T10:24:34.153Z,94045.09
2022-09-15T10:27:19.215Z,94038.06
2022-09-15T10:29:46.785Z,94033.97
2022-09-15T10:32:25.478Z,94034.41
2022-09-15T10:35:00.460Z,94032.50
2022-09-15T10:37:31.847Z,94039.31
2022-09-15T10:40:01.456Z,94030.94
2022-09-15T10:42:46.290Z,94038.75
2022-09-15T10:45:26.204Z,94037.72
2022-09-15T10:48:09.887Z,94024.22
2022-09-15T10:50:47.577Z,94021.75
2022-09-15T10:53:23.583Z,94026.56
2022-09-15T10:55:59.540Z,94015.09
2022-09-15T10:58:56.776Z,94007.75
2022-09-15T11:01:39.299Z,94015.88
2022-09-15T11:04:30.817Z,94002.53
2022-09-15T11:07:07.146Z,93991.44
2022-09-15T11:09:38.707Z,94009.47
2022-09-15T11:12:25.910Z,94012.25
2022-09-15T11:15:12.183Z,94004.44
2022-09-15T11:17:56.534Z,93993.50
2022-09-15T11:20:53.774Z,94004.16
2022-09-15T11:23:25.718Z,93993.13
2022-09-15T11:25:58.611Z,94004.31
2022-09-15T11:28:30.537Z,93993.31
2022-09-15T11:31:02.580Z,93998.34
2022-09-15T11:33:34.671Z,94002.16
2022-09-15T11:36:07.533Z,93990.16
2022-09-15T11:38:42.749Z,93991.38
2022-09-15T11:41:17.937Z,94000.69
2022-09-15T11:43:54.129Z,93995.06
2022-09-15T11:46:28.418Z,93997.94
2022-09-15T11:49:02.060Z,93978.19
2022-09-15T11:51:37.918Z,93978.25
2022-09-15T11:54:10.952Z,93982.41
2022-09-15T11:56:42.338Z,93982.84
2022-09-15T11:59:19.789Z,93979.66
2022-09-15T12:01:52.238Z,93983.88
2022-09-15T12:04:26.913Z,93967.25
2022-09-15T12:07:03.137Z,93969.59
2022-09-15T12:09:30.031Z,93972.28
2022-09-15T12:12:01.872Z,93963.94
2022-09-15T12:14:32.809Z,93977.03
2022-09-15T12:17:00.220Z,93971.31
2022-09-15T12:19:44.060Z,93960.13
2022-09-15T12:22:21.903Z,93968.97
2022-09-15T12:24:58.850Z,93973.91
2022-09-15T12:27:28.456Z,94000.22
2022-09-15T12:29:56.491Z,93984.59
2022-09-15T12:32:26.688Z,94000.09
2022-09-15T12:35:07.912Z,93984.78
2022-09-15T12:37:47.204Z,93990.47
2022-09-15T12:40:38.031Z,93990.22
2022-09-15T12:43:22.850Z,93991.00
2022-09-15T12:45:57.638Z,93993.44
2022-09-15T12:48:29.225Z,94002.00
2022-09-15T12:50:59.952Z,93990.03
2022-09-15T12:53:31.305Z,93988.41
2022-09-15T12:56:03.792Z,93996.13
2022-09-15T12:58:35.170Z,93981.97
2022-09-15T13:01:30.795Z,93977.97
2022-09-15T13:04:49.565Z,93971.28
2022-09-15T13:07:47.001Z,93984.31
2022-09-15T13:10:36.331Z,93979.63
2022-09-15T13:13:10.880Z,93997.41
2022-09-15T13:15:44.860Z,93986.34
2022-09-15T13:18:13.457Z,93999.94
2022-09-15T13:20:48.599Z,93996.47
2022-09-15T13:23:16.674Z,93989.16
2022-09-15T13:25:46.595Z,93995.25
2022-09-15T13:30:57.285Z,93992.72
2022-09-15T13:39:43.567Z,93974.41
2022-09-15T13:42:28.859Z,93978.75
2022-09-15T13:45:40.863Z,93976.78
2022-09-15T13:48:37.688Z,93977.44
2022-09-15T13:51:13.653Z,93981.03
2022-09-15T13:53:49.681Z,93978.44
2022-09-15T13:56:23.747Z,93981.63
2022-09-15T13:58:58.239Z,93970.84
2022-09-15T14:01:33.314Z,93991.97
2022-09-15T14:04:05.090Z,93980.50
2022-09-15T14:06:36.934Z,93984.25
2022-09-15T14:09:13.569Z,93987.00
2022-09-15T14:11:42.666Z,93990.84
2022-09-15T14:14:34.899Z,93989.91
2022-09-15T14:17:01.981Z,93986.91
2022-09-15T14:19:33.872Z,93986.91
2022-09-15T14:24:30.200Z,93989.25
2022-09-15T14:27:00.855Z,94012.13
2022-09-15T14:29:29.358Z,93998.81
2022-09-15T14:32:00.853Z,94004.66
2022-09-15T14:34:35.486Z,94012.16
2022-09-15T14:37:05.918Z,94007.75
2022-09-15T14:39:33.601Z,94024.94
2022-09-15T14:42:09.435Z,94005.66
2022-09-15T14:47:30.120Z,94013.41
2022-09-15T14:50:08.020Z,94012.09
2022-09-15T14:52:39.167Z,94001.44
2022-09-15T14:55:13.973Z,93995.03
2022-09-15T14:57:49.287Z,93999.25
2022-09-15T15:00:30.468Z,94006.50
2022-09-15T15:03:14.896Z,94003.72
2022-09-15T15:08:38.102Z,94024.16
2022-09-15T15:11:07.970Z,94027.34
2022-09-15T15:13:37.457Z,94024.03
2022-09-15T15:16:19.039Z,94025.09
2022-09-15T15:18:46.430Z,94021.78
2022-09-15T15:21:35.202Z,94028.66
2022-09-15T15:24:10.050Z,94023.28
2022-09-15T15:26:41.329Z,94023.63
2022-09-15T15:29:29.779Z,94040.56
2022-09-15T15:32:05.413Z,94038.44
2022-09-15T15:34:33.468Z,94031.78
2022-09-15T15:37:03.422Z,94035.06
2022-09-15T15:39:30.819Z,94033.94
2022-09-15T15:42:03.503Z,94035.94
2022-09-15T15:44:31.803Z,94028.56
2022-09-15T15:47:04.297Z,94027.34
2022-09-15T15:49:32.697Z,94034.13
2022-09-15T15:52:00.741Z,94045.25
2022-09-15T15:54:34.190Z,94045.72
2022-09-15T15:57:21.730Z,94045.97
2022-09-15T15:59:48.565Z,94037.38
2022-09-15T16:02:15.863Z,94028.44
2022-09-15T16:04:43.848Z,94033.72
2022-09-15T16:07:17.740Z,94041.94
2022-09-15T16:09:45.649Z,94045.53
2022-09-15T16:12:12.345Z,94053.06
2022-09-15T16:14:39.137Z,94044.47
2022-09-15T16:17:06.133Z,94050.94
2022-09-15T16:19:32.892Z,94051.41
2022-09-15T16:22:01.616Z,94065.41
2022-09-15T16:24:28.775Z,94068.25
2022-09-15T16:26:55.846Z,94062.28
2022-09-15T16:29:27.701Z,94074.22
2022-09-15T16:31:54.669Z,94084.34
2022-09-15T16:34:21.494Z,94088.09
2022-09-15T16:36:48.305Z,94094.47
2022-09-15T16:39:16.265Z,94095.50
2022-09-15T16:41:43.285Z,94085.78
2022-09-15T16:44:17.757Z,94096.28
2022-09-15T16:46:44.735Z,94094.63
2022-09-15T16:49:11.478Z,94095.28
2022-09-15T16:51:38.264Z,94095.50
2022-09-15T16:54:13.906Z,94099.41
2022-09-15T16:56:42.145Z,94107.91
2022-09-15T16:59:08.865Z,94105.13
2022-09-15T17:01:35.862Z,94104.13
2022-09-15T17:04:03.889Z,94107.13
2022-09-15T17:06:31.090Z,94104.00
2022-09-15T17:08:58.110Z,94115.06
2022-09-15T17:11:25.942Z,94110.81
2022-09-15T17:13:54.118Z,94116.97
2022-09-15T17:16:20.978Z,94131.47
2022-09-15T17:18:48.242Z,94132.72
2022-09-15T17:21:17.189Z,94143.00
2022-09-15T17:23:46.563Z,94162.00
2022-09-15T17:26:14.911Z,94160.53
2022-09-15T17:28:42.436Z,94170.31
2022-09-15T17:31:15.409Z,94175.47
2022-09-15T17:33:42.314Z,94171.97
2022-09-15T17:36:10.147Z,94170.91
2022-09-15T17:38:36.972Z,94186.91
2022-09-15T17:41:04.045Z,94185.75
2022-09-15T17:43:31.839Z,94196.38
2022-09-15T17:45:58.692Z,94197.22
2022-09-15T17:48:26.876Z,94205.63
2022-09-15T17:50:53.502Z,94205.78
2022-09-15T17:53:22.570Z,94208.66
2022-09-15T17:55:50.235Z,94203.34
2022-09-15T17:58:17.594Z,94212.66
2022-09-15T18:00:45.362Z,94216.31
2022-09-15T18:03:22.615Z,94214.41
2022-09-15T18:05:51.586Z,94225.75
2022-09-15T18:08:19.269Z,94230.34
2022-09-15T18:10:46.840Z,94226.88
2022-09-15T18:13:15.702Z,94229.56
2022-09-15T18:15:43.101Z,94233.19
2022-09-15T18:18:14.482Z,94235.84
2022-09-15T18:20:41.855Z,94235.06
2022-09-15T18:23:14.335Z,94238.66
2022-09-15T18:25:41.683Z,94245.63
2022-09-15T18:28:08.360Z,94251.63
2022-09-15T18:30:40.683Z,94257.91
2022-09-15T18:33:08.150Z,94265.03
2022-09-15T18:35:35.107Z,94280.59
2022-09-15T18:38:02.012Z,94279.03
2022-09-15T18:40:30.078Z,94276.66
2022-09-15T18:42:57.380Z,94277.16
2022-09-15T18:45:24.695Z,94276.03
2022-09-15T18:47:53.166Z,94278.41
2022-09-15T18:50:22.427Z,94286.09
2022-09-15T18:52:50.572Z,94279.31
2022-09-15T18:55:19.115Z,94292.09
2022-09-15T18:57:47.350Z,94297.75
2022-09-15T19:00:16.113Z,94298.03
2022-09-15T19:02:43.355Z,94308.44
2022-09-15T19:05:15.597Z,94300.09
2022-09-15T19:07:42.932Z,94300.88
2022-09-15T19:10:13.570Z,94305.13
2022-09-15T19:12:40.989Z,94309.81
2022-09-15T19:15:13.263Z,94306.53
2022-09-15T19:17:45.204Z,94307.63
2022-09-15T19:20:15.256Z,94308.28
2022-09-15T19:22:42.386Z,94302.91
2022-09-15T19:25:11.379Z,94299.78
2022-09-15T19:27:38.922Z,94307.97
2022-09-15T19:30:06.878Z,94305.94
2022-09-15T19:32:34.960Z,94305.16
2022-09-15T19:35:02.674Z,94298.84
2022-09-15T19:37:29.810Z,94298.84
2022-09-15T19:39:56.851Z,94297.44
2022-09-15T19:42:26.125Z,94299.81
2022-09-15T19:44:54.450Z,94306.72
2022-09-15T19:47:21.172Z,94310.50
2022-09-15T19:49:50.940Z,94308.78
2022-09-15T19:52:18.075Z,94302.81
2022-09-15T19:54:44.691Z,94310.69
2022-09-15T19:57:11.547Z,94308.19
2022-09-15T19:59:38.566Z,94301.56
2022-09-15T20:02:05.345Z,94297.47
2022-09-15T20:04:32.443Z,94307.53
2022-09-15T20:07:00.375Z,94308.63
2022-09-15T20:09:27.076Z,94311.00
2022-09-15T20:11:54.326Z,94317.28
2022-09-15T20:14:21.176Z,94311.94
2022-09-15T20:16:48.092Z,94317.28
2022-09-15T20:19:14.956Z,94312.72
2022-09-15T20:21:51.172Z,94317.41
2022-09-15T20:24:20.707Z,94316.81
2022-09-15T20:26:48.110Z,94320.41
2022-09-15T20:29:15.262Z,94322.47
2022-09-15T20:31:42.102Z,94319.00
2022-09-15T20:34:08.742Z,94329.03
2022-09-15T20:36:38.379Z,94330.91
2022-09-15T20:39:08.713Z,94332.16
2022-09-15T20:41:37.116Z,94337.94
2022-09-15T20:44:05.328Z,94339.81
2022-09-15T20:46:32.044Z,94338.06
2022-09-15T20:48:58.697Z,94337.59
2022-09-15T20:51:27.942Z,94343.88
2022-09-15T20:53:56.274Z,94337.63
2022-09-15T20:56:25.882Z,94350.84
2022-09-15T20:58:55.422Z,94350.03
2022-09-15T21:01:24.056Z,94347.69
2022-09-15T21:03:51.057Z,94343.91
2022-09-15T21:06:19.663Z,94351.63
2022-09-15T21:08:47.615Z,94355.69
2022-09-15T21:11:15.813Z,94353.03
2022-09-15T21:13:43.818Z,94365.13
2022-09-15T21:16:15.126Z,94359.00
2022-09-15T21:18:43.288Z,94363.06
2022-09-15T21:21:12.883Z,94367.47
2022-09-15T21:23:41.907Z,94368.91
2022-09-15T21:26:10.341Z,94371.91
2022-09-15T21:28:37.823Z,94370.50
2022-09-15T21:31:06.714Z,94362.19
2022-09-15T21:33:35.905Z,94364.06
2022-09-15T21:36:05.070Z,94362.81
2022-09-15T21:38:32.511Z,94365.78
2022-09-15T21:40:59.217Z,94374.09
2022-09-15T21:43:29.173Z,94381.63
2022-09-15T21:45:56.535Z,94388.22
2022-09-15T21:48:23.203Z,94384.44
2022-09-15T21:50:51.660Z,94376.22
2022-09-15T21:53:20.207Z,94380.63
2022-09-15T21:55:50.402Z,94379.03
2022-09-15T21:58:18.175Z,94374.63
2022-09-15T22:00:45.012Z,94374.00
2022-09-15T22:03:11.694Z,94370.28
2022-09-15T22:05:39.333Z,94367.25
2022-09-15T22:08:08.715Z,94357.81
2022-09-15T22:10:35.591Z,94368.00
2022-09-15T22:13:02.250Z,94363.91
2022-09-15T22:15:29.365Z,94363.84
2022-09-15T22:17:56.134Z,94358.19
2022-09-15T22:20:22.851Z,94360.84
2022-09-15T22:22:49.509Z,94363.81
2022-09-15T22:25:21.815Z,94363.63
2022-09-15T22:27:48.703Z,94365.81
2022-09-15T22:30:15.577Z,94365.81
2022-09-15T22:32:42.254Z,94366.31
2022-09-15T22:35:11.434Z,94372.91
2022-09-15T22:37:38.147Z,94365.69
2022-09-15T22:40:06.025Z,94363.81
2022-09-15T22:42:34.124Z,94353.25
2022-09-15T22:45:00.817Z,94362.16
2022-09-15T22:47:27.418Z,94356.50
2022-09-15T22:49:54.011Z,94358.00
2022-09-15T22:52:21.220Z,94355.56
2022-09-15T22:54:47.949Z,94350.16
2022-09-15T22:57:14.535Z,94347.31
2022-09-15T22:59:42.432Z,94347.94
2022-09-15T23:02:09.207Z,94346.66
2022-09-15T23:04:35.894Z,94339.25
2022-09-15T23:07:02.471Z,94333.13
2022-09-15T23:09:29.297Z,94325.91
2022-09-15T23:11:56.007Z,94323.78
2022-09-15T23:14:23.830Z,94318.63
2022-09-15T23:16:51.917Z,94324.91
2022-09-15T23:19:18.485Z,94325.09
2022-09-15T23:21:45.204Z,94319.31
2022-09-15T23:24:12.502Z,94309.94
2022-09-15T23:26:39.583Z,94301.66
2022-09-15T23:29:06.300Z,94289.88
2022-09-15T23:31:33.009Z,94296.81
2022-09-15T23:34:01.179Z,94294.31
2022-09-15T23:36:27.951Z,94305.47
2022-09-15T23:38:54.751Z,94301.69
2022-09-15T23:41:21.598Z,94304.34
2022-09-15T23:43:48.232Z,94298.72
2022-09-15T23:46:15.009Z,94298.91
2022-09-15T23:48:41.970Z,94303.63
2022-09-15T23:51:10.365Z,94307.25
2022-09-15T23:53:37.233Z,94297.88
2022-09-15T23:56:04.139Z,94298.50
2022-09-15T23:58:30.999Z,94298.22
